sensor_id;sensor_type;location;lat;lon;timestamp;pressure;altitude;pressure_sealevel;temperature;humidity
69593;BME280;56796;50.122;14.468;2023-02-02T00:01:23;976.49;;;2.85;86.89
69593;BME280;56796;50.122;14.468;2023-02-02T00:20:50;976.64;;;2.88;85.84
69593;BME280;56796;50.122;14.468;2023-02-02T00:40:20;976.73;;;2.85;85.01
69593;BME280;56796;50.122;14.468;2023-02-02T00:59:38;976.72;;;2.84;84.47
69593;BME280;56796;50.122;14.468;2023-02-02T01:19:04;976.67;;;3.07;82.94
69593;BME280;56796;50.122;14.468;2023-02-02T01:38:31;976.57;;;3.22;81.82
69593;BME280;56796;50.122;14.468;2023-02-02T01:57:58;976.87;;;3.2;81.34
69593;BME280;56796;50.122;14.468;2023-02-02T02:17:30;976.77;;;3.23;80.72
69593;BME280;56796;50.122;14.468;2023-02-02T02:36:49;976.69;;;3.31;80.05
69593;BME280;56796;50.122;14.468;2023-02-02T02:56:17;976.67;;;3.09;81.08
69593;BME280;56796;50.122;14.468;2023-02-02T03:15:41;976.61;;;3.23;78.38
69593;BME280;56796;50.122;14.468;2023-02-02T03:35:08;976.86;;;3.08;78.18
69593;BME280;56796;50.122;14.468;2023-02-02T03:54:34;976.8;;;2.98;76.32
69593;BME280;56796;50.122;14.468;2023-02-02T04:14:00;976.79;;;3.23;75.69
69593;BME280;56796;50.122;14.468;2023-02-02T04:33:27;976.94;;;3.36;75.43
69593;BME280;56796;50.122;14.468;2023-02-02T04:52:53;977.12;;;3.45;75.15
69593;BME280;56796;50.122;14.468;2023-02-02T05:12:20;977.27;;;3.42;75.32
69593;BME280;56796;50.122;14.468;2023-02-02T05:31:46;977.46;;;3.51;75.18
69593;BME280;56796;50.122;14.468;2023-02-02T05:51:13;977.7;;;3.51;75.49
69593;BME280;56796;50.122;14.468;2023-02-02T06:10:38;977.94;;;3.47;76.48
69593;BME280;56796;50.122;14.468;2023-02-02T06:30:04;978.08;;;3.48;77.49
69593;BME280;56796;50.122;14.468;2023-02-02T06:49:31;978.32;;;3.59;77.67
69593;BME280;56796;50.122;14.468;2023-02-02T07:08:57;978.45;;;3.63;78.14
69593;BME280;56796;50.122;14.468;2023-02-02T07:28:23;978.62;;;4.01;77.9
69593;BME280;56796;50.122;14.468;2023-02-02T07:47:54;978.78;;;4.08;77.42
69593;BME280;56796;50.122;14.468;2023-02-02T08:07:17;978.92;;;4.03;77.44
69593;BME280;56796;50.122;14.468;2023-02-02T08:26:43;979.11;;;3.98;77.47
69593;BME280;56796;50.122;14.468;2023-02-02T08:46:13;979.38;;;3.99;78.45
69593;BME280;56796;50.122;14.468;2023-02-02T09:05:31;979.43;;;4.38;78.42
69593;BME280;56796;50.122;14.468;2023-02-02T09:24:58;979.59;;;4.48;78.46
69593;BME280;56796;50.122;14.468;2023-02-02T09:44:30;979.81;;;4.51;78.04
69593;BME280;56796;50.122;14.468;2023-02-02T10:03:55;979.96;;;4.65;77.94
69593;BME280;56796;50.122;14.468;2023-02-02T10:23:20;980.08;;;4.61;79.2
69593;BME280;56796;50.122;14.468;2023-02-02T10:42:49;980.09;;;5.12;77.09
69593;BME280;56796;50.122;14.468;2023-02-02T11:02:12;980.01;;;5.43;75.17
69593;BME280;56796;50.122;14.468;2023-02-02T11:21:39;980.1;;;5.79;73.27
69593;BME280;56796;50.122;14.468;2023-02-02T11:41:13;979.86;;;9.87;62.86
69593;BME280;56796;50.122;14.468;2023-02-02T12:00:45;980.07;;;6.86;68.01
69593;BME280;56796;50.122;14.468;2023-02-02T12:20:05;980.17;;;6.47;69.99
69593;BME280;56796;50.122;14.468;2023-02-02T12:39:37;980.07;;;7.41;64.82
69593;BME280;56796;50.122;14.468;2023-02-02T12:59:01;980.12;;;6.5;69.7
69593;BME280;56796;50.122;14.468;2023-02-02T13:18:14;980.15;;;6.23;69.8
69593;BME280;56796;50.122;14.468;2023-02-02T13:37:46;980.38;;;7;67.78
69593;BME280;56796;50.122;14.468;2023-02-02T13:57:17;980.63;;;6.31;69.64
69593;BME280;56796;50.122;14.468;2023-02-02T14:36:00;981.29;;;5.2;73.59
69593;BME280;56796;50.122;14.468;2023-02-02T14:55:17;981.6;;;5.02;76.48
69593;BME280;56796;50.122;14.468;2023-02-02T15:14:41;981.96;;;4.89;78.81
69593;BME280;56796;50.122;14.468;2023-02-02T15:34:08;982.18;;;4.67;77.93
69593;BME280;56796;50.122;14.468;2023-02-02T15:53:31;982.63;;;4.28;78.86
69593;BME280;56796;50.122;14.468;2023-02-02T16:12:55;982.97;;;3.94;80.47
69593;BME280;56796;50.122;14.468;2023-02-02T16:32:24;983.24;;;3.78;81.03
69593;BME280;56796;50.122;14.468;2023-02-02T16:51:45;983.84;;;3.51;82.18
69593;BME280;56796;50.122;14.468;2023-02-02T17:30:35;984.62;;;3.25;83.74
69593;BME280;56796;50.122;14.468;2023-02-02T17:50:01;984.93;;;3.26;83.25
69593;BME280;56796;50.122;14.468;2023-02-02T18:09:26;985.2;;;3.08;84.17
69593;BME280;56796;50.122;14.468;2023-02-02T18:28:51;985.49;;;3.06;85
69593;BME280;56796;50.122;14.468;2023-02-02T18:48:18;985.84;;;3.21;84.93
69593;BME280;56796;50.122;14.468;2023-02-02T19:07:48;986.11;;;3.4;84.42
69593;BME280;56796;50.122;14.468;2023-02-02T19:27:09;986.19;;;3.37;84.54
69593;BME280;56796;50.122;14.468;2023-02-02T19:46:41;986.3;;;3.27;85.86
69593;BME280;56796;50.122;14.468;2023-02-02T20:06:00;986.52;;;3.2;86.33
69593;BME280;56796;50.122;14.468;2023-02-02T20:25:17;986.59;;;3.23;85.45
69593;BME280;56796;50.122;14.468;2023-02-02T20:44:42;986.97;;;3.23;84.82
69593;BME280;56796;50.122;14.468;2023-02-02T21:04:08;986.91;;;3.2;84.66
69593;BME280;56796;50.122;14.468;2023-02-02T21:23:32;986.97;;;2.88;84.72
69593;BME280;56796;50.122;14.468;2023-02-02T21:42:58;987.19;;;2.78;84.64
69593;BME280;56796;50.122;14.468;2023-02-02T22:02:30;987.13;;;2.75;84.81
69593;BME280;56796;50.122;14.468;2023-02-02T22:21:48;987.12;;;2.69;85.34
69593;BME280;56796;50.122;14.468;2023-02-02T22:41:14;987.34;;;2.61;85.86
69593;BME280;56796;50.122;14.468;2023-02-02T23:00:40;987.38;;;2.46;86.68
69593;BME280;56796;50.122;14.468;2023-02-02T23:20:09;987.18;;;2.15;88.01
69593;BME280;56796;50.122;14.468;2023-02-02T23:39:25;987.02;;;2.05;89.27
69593;BME280;56796;50.122;14.468;2023-02-02T23:58:51;986.85;;;2.19;89.82
